createdAt,value
2023-01-01T00:03:08.786Z,1000.821
2023-01-01T00:23:07.548Z,1000.999
2023-01-01T00:43:07.385Z,1001.038
2023-01-01T01:03:08.351Z,1001.018
2023-01-01T01:23:07.202Z,1001.021
2023-01-01T01:43:07.958Z,1001.316
2023-01-01T02:03:09.039Z,1001.446
2023-01-01T02:23:08.166Z,1001.397
2023-01-01T02:43:08.067Z,1001.622
2023-01-01T03:03:09.336Z,1001.602
2023-01-01T03:23:07.220Z,1001.556
2023-01-01T03:43:08.107Z,1001.714
2023-01-01T04:03:09.321Z,1001.886
2023-01-01T04:23:07.270Z,1001.741
2023-01-01T04:43:08.136Z,1002.045
2023-01-01T05:03:09.188Z,1002.211
2023-01-01T05:23:08.172Z,1002.402
2023-01-01T05:43:07.343Z,1002.695
2023-01-01T06:03:08.657Z,1002.802
2023-01-01T06:23:07.572Z,1003.028
2023-01-01T06:43:07.374Z,1003.338
2023-01-01T07:03:08.967Z,1003.615
2023-01-01T07:23:07.862Z,1003.926
2023-01-01T07:43:07.847Z,1004.094
2023-01-01T08:03:08.827Z,1004.27
2023-01-01T08:23:08.599Z,1004.518
2023-01-01T08:43:07.527Z,1004.992
2023-01-01T09:03:08.732Z,1005.225
2023-01-01T09:23:07.934Z,1005.543
2023-01-01T09:43:07.972Z,1005.986
2023-01-01T10:03:09.230Z,1006.126
2023-01-01T10:23:07.156Z,1006.077
2023-01-01T10:43:08.140Z,1006.232
2023-01-01T11:03:09.256Z,1006.208
2023-01-01T11:23:08.134Z,1006.026
2023-01-01T11:43:07.953Z,1006.144
2023-01-01T12:03:09.146Z,1006.455
2023-01-01T12:23:08.096Z,1006.521
2023-01-01T12:43:08.054Z,1006.516
2023-01-01T13:03:09.382Z,1006.355
2023-01-01T13:23:07.203Z,1006.479
2023-01-01T13:43:08.369Z,1006.622
2023-01-01T14:03:08.497Z,1006.776
2023-01-01T14:23:07.395Z,1007.039
2023-01-01T14:43:07.394Z,1006.842
2023-01-01T15:03:08.753Z,1007.015
2023-01-01T15:23:11.356Z,1007.25
2023-01-01T15:43:07.552Z,1007.032
2023-01-01T16:03:08.661Z,1006.922
2023-01-01T16:23:07.578Z,1007.048
2023-01-01T16:43:07.523Z,1007.232
2023-01-01T17:03:08.675Z,1007.245
2023-01-01T17:23:07.463Z,1007.273
2023-01-01T17:43:07.481Z,1007.264
2023-01-01T18:03:09.113Z,1007.021
2023-01-01T18:23:07.997Z,1006.901
2023-01-01T18:43:08.101Z,1006.73
2023-01-01T19:03:09.382Z,1006.632
2023-01-01T19:23:07.284Z,1006.535
2023-01-01T19:43:07.553Z,1006.462
2023-01-01T20:03:57.676Z,1006.169
2023-01-01T20:23:07.685Z,1005.905
2023-01-01T20:43:07.753Z,1005.523
2023-01-01T21:03:08.977Z,1005.22
2023-01-01T21:23:07.932Z,1004.888
2023-01-01T21:43:08.222Z,1004.424
2023-01-01T22:03:08.404Z,1004.367
2023-01-01T22:23:07.420Z,1004.015
2023-01-01T22:43:07.701Z,1004.091
2023-01-01T23:03:08.574Z,1003.796
2023-01-01T23:23:07.423Z,1003.437
2023-01-01T23:43:07.232Z,1003.426
